createdAt,value
2022-09-26T00:01:38.003Z,15.19
2022-09-26T00:04:10.240Z,15.25
2022-09-26T00:06:37.371Z,15.20
2022-09-26T00:09:04.393Z,15.24
2022-09-26T00:11:33.464Z,15.30
2022-09-26T00:14:04.008Z,15.23
2022-09-26T00:16:31.306Z,15.16
2022-09-26T00:18:59.233Z,15.24
2022-09-26T00:21:27.718Z,15.09
2022-09-26T00:23:54.914Z,15.13
2022-09-26T00:26:23.731Z,15.17
2022-09-26T00:28:51.412Z,15.08
2022-09-26T00:31:32.542Z,15.13
2022-09-26T00:33:59.713Z,15.09
2022-09-26T00:36:37.388Z,15.09
2022-09-26T00:39:05.264Z,15.05
2022-09-26T00:41:32.284Z,15.15
2022-09-26T00:44:00.066Z,15.11
2022-09-26T00:46:47.074Z,15.24
2022-09-26T00:49:32.750Z,15.13
2022-09-26T00:52:20.447Z,15.21
2022-09-26T00:54:51.292Z,15.18
2022-09-26T00:57:24.760Z,15.07
2022-09-26T00:59:59.736Z,15.15
2022-09-26T01:02:28.997Z,15.17
2022-09-26T01:04:57.707Z,15.01
2022-09-26T01:07:27.548Z,15.03
2022-09-26T01:09:56.034Z,14.99
2022-09-26T01:12:23.340Z,15.06
2022-09-26T01:14:55.051Z,15.09
2022-09-26T01:17:24.804Z,15.06
2022-09-26T01:19:51.838Z,15.08
2022-09-26T01:23:00.332Z,15.24
2022-09-26T01:25:56.216Z,15.14
2022-09-26T01:28:49.628Z,15.14
2022-09-26T01:31:38.321Z,15.11
2022-09-26T01:34:22.706Z,15.15
2022-09-26T01:36:49.597Z,15.13
2022-09-26T01:39:31.535Z,15.21
2022-09-26T01:42:15.610Z,15.27
2022-09-26T01:45:11.781Z,15.17
2022-09-26T01:47:47.794Z,15.11
2022-09-26T01:50:35.061Z,15.12
2022-09-26T01:53:06.369Z,15.17
2022-09-26T01:55:45.307Z,15.12
2022-09-26T01:58:25.467Z,15.18
2022-09-26T02:00:54.837Z,15.17
2022-09-26T02:03:27.542Z,15.22
2022-09-26T02:06:09.220Z,15.20
2022-09-26T02:08:54.332Z,15.23
2022-09-26T02:11:22.779Z,15.21
2022-09-26T02:13:56.023Z,15.17
2022-09-26T02:16:30.219Z,15.18
2022-09-26T02:19:10.348Z,15.17
2022-09-26T02:21:37.579Z,15.15
2022-09-26T02:24:04.675Z,15.08
2022-09-26T02:26:32.239Z,14.93
2022-09-26T02:29:01.164Z,14.96
2022-09-26T02:31:33.409Z,15.08
2022-09-26T02:34:00.594Z,15.03
2022-09-26T02:36:28.743Z,14.94
2022-09-26T02:38:56.091Z,14.82
2022-09-26T02:42:01.063Z,14.86
2022-09-26T02:44:40.545Z,14.96
2022-09-26T02:47:26.110Z,15.01
2022-09-26T02:50:22.287Z,14.79
2022-09-26T02:52:55.376Z,14.67
2022-09-26T02:55:44.889Z,14.71
2022-09-26T02:58:35.118Z,14.53
2022-09-26T03:01:12.911Z,14.54
2022-09-26T03:03:40.422Z,14.67
2022-09-26T03:06:11.635Z,14.65
2022-09-26T03:08:44.197Z,14.69
2022-09-26T03:11:14.063Z,14.75
2022-09-26T03:13:42.365Z,14.79
2022-09-26T03:16:11.307Z,14.89
2022-09-26T03:18:54.492Z,14.91
2022-09-26T03:21:23.551Z,14.98
2022-09-26T03:23:51.180Z,15.01
2022-09-26T03:26:24.636Z,15.03
2022-09-26T03:28:59.102Z,15.05
2022-09-26T03:31:29.098Z,15.05
2022-09-26T03:34:04.984Z,15.03
2022-09-26T03:36:32.371Z,14.97
2022-09-26T03:39:01.293Z,14.90
2022-09-26T03:41:46.141Z,14.91
2022-09-26T03:44:26.786Z,14.92
2022-09-26T03:47:13.619Z,14.88
2022-09-26T03:49:42.494Z,14.84
2022-09-26T03:52:12.097Z,14.89
2022-09-26T03:54:39.630Z,14.90
2022-09-26T03:57:06.852Z,14.84
2022-09-26T03:59:38.175Z,14.83
2022-09-26T04:02:06.792Z,14.89
2022-09-26T04:04:39.136Z,14.91
2022-09-26T04:07:09.254Z,14.92
2022-09-26T04:09:36.267Z,14.88
2022-09-26T04:12:04.750Z,14.87
2022-09-26T04:14:34.330Z,14.85
2022-09-26T04:17:01.250Z,14.83
2022-09-26T04:19:38.665Z,14.88
2022-09-26T04:22:08.247Z,14.87
2022-09-26T04:24:35.842Z,14.90
2022-09-26T04:27:03.545Z,14.90
2022-09-26T04:29:31.082Z,14.88
2022-09-26T04:32:06.447Z,14.88
2022-09-26T04:34:44.013Z,14.88
2022-09-26T04:37:12.185Z,14.89
2022-09-26T04:39:39.080Z,15.00
2022-09-26T04:42:06.132Z,15.00
2022-09-26T04:44:33.054Z,14.99
2022-09-26T04:46:59.983Z,15.05
2022-09-26T04:49:45.926Z,15.13
2022-09-26T04:52:13.827Z,15.26
2022-09-26T04:54:40.754Z,15.33
2022-09-26T04:57:07.747Z,15.37
2022-09-26T04:59:35.457Z,15.43
2022-09-26T05:02:05.469Z,15.55
2022-09-26T05:04:40.575Z,15.64
2022-09-26T05:07:07.486Z,15.76
2022-09-26T05:09:36.297Z,15.79
2022-09-26T05:12:07.259Z,15.97
2022-09-26T05:14:36.370Z,16.18
2022-09-26T05:17:04.678Z,16.38
2022-09-26T05:19:33.064Z,16.55
2022-09-26T05:22:14.903Z,16.48
2022-09-26T05:25:00.092Z,16.59
2022-09-26T05:27:27.134Z,16.60
2022-09-26T05:29:55.911Z,16.81
2022-09-26T05:32:23.894Z,16.84
2022-09-26T05:34:52.077Z,16.86
2022-09-26T05:37:21.379Z,16.65
2022-09-26T05:40:07.950Z,16.78
2022-09-26T05:42:39.869Z,16.79
2022-09-26T05:45:07.608Z,16.85
2022-09-26T05:47:36.385Z,16.95
2022-09-26T05:50:10.072Z,16.81
2022-09-26T05:52:39.507Z,17.00
2022-09-26T05:55:08.901Z,16.90
2022-09-26T05:57:57.028Z,17.07
2022-09-26T06:00:27.840Z,17.28
2022-09-26T06:03:01.300Z,17.37
2022-09-26T06:05:47.318Z,17.38
2022-09-26T06:08:17.503Z,17.36
2022-09-26T06:11:10.597Z,17.49
2022-09-26T06:13:37.646Z,17.66
2022-09-26T06:16:07.404Z,17.82
2022-09-26T06:18:35.014Z,17.83
2022-09-26T06:21:06.223Z,17.94
2022-09-26T06:23:36.120Z,18.00
2022-09-26T06:26:09.548Z,18.20
2022-09-26T06:28:36.783Z,18.34
2022-09-26T06:31:16.959Z,18.42
2022-09-26T06:34:05.522Z,18.61
2022-09-26T06:36:53.907Z,18.61
2022-09-26T06:39:20.897Z,18.92
2022-09-26T06:41:47.949Z,18.94
2022-09-26T06:44:35.406Z,18.76
2022-09-26T06:47:14.492Z,18.69
2022-09-26T06:49:41.484Z,18.60
2022-09-26T06:52:20.874Z,18.51
2022-09-26T06:54:48.095Z,18.45
2022-09-26T06:57:15.437Z,18.66
2022-09-26T06:59:42.699Z,18.76
2022-09-26T07:02:26.584Z,19.16
2022-09-26T07:05:14.612Z,19.07
2022-09-26T07:07:51.236Z,19.20
2022-09-26T07:10:25.993Z,19.34
2022-09-26T07:13:04.216Z,19.46
2022-09-26T07:15:33.551Z,19.51
2022-09-26T07:18:06.495Z,19.67
2022-09-26T07:20:59.134Z,19.72
2022-09-26T07:23:56.744Z,19.70
2022-09-26T07:26:23.653Z,19.90
2022-09-26T07:28:56.744Z,20.02
2022-09-26T07:31:26.347Z,20.17
2022-09-26T07:34:05.256Z,20.36
2022-09-26T07:36:32.244Z,20.38
2022-09-26T07:38:59.479Z,20.45
2022-09-26T07:41:31.295Z,20.59
2022-09-26T07:47:05.154Z,20.91
2022-09-26T07:49:50.924Z,20.69
2022-09-26T07:52:36.099Z,20.94
2022-09-26T07:55:26.226Z,20.96
2022-09-26T07:58:07.236Z,21.12
2022-09-26T08:00:52.641Z,21.16
2022-09-26T08:03:44.456Z,21.29
2022-09-26T08:06:22.327Z,21.59
2022-09-26T08:08:53.151Z,21.60
2022-09-26T08:11:39.915Z,21.45
2022-09-26T08:14:29.755Z,21.62
2022-09-26T08:17:03.994Z,21.76
2022-09-26T08:19:31.094Z,21.90
2022-09-26T08:21:59.270Z,21.87
2022-09-26T08:24:26.201Z,21.82
2022-09-26T08:27:11.361Z,21.91
2022-09-26T08:29:42.349Z,22.04
2022-09-26T08:32:09.753Z,22.26
2022-09-26T08:34:36.654Z,22.44
2022-09-26T08:37:28.201Z,22.67
2022-09-26T08:40:13.766Z,22.62
2022-09-26T08:43:26.158Z,22.57
2022-09-26T08:46:31.755Z,22.80
2022-09-26T08:49:50.993Z,22.88
2022-09-26T08:52:30.792Z,22.84
2022-09-26T08:55:02.322Z,23.15
2022-09-26T08:57:32.419Z,23.19
2022-09-26T08:59:59.684Z,23.34
2022-09-26T09:02:33.742Z,23.12
2022-09-26T09:05:22.339Z,23.32
2022-09-26T09:07:53.842Z,23.35
2022-09-26T09:10:36.196Z,23.46
2022-09-26T09:13:43.122Z,23.27
2022-09-26T09:16:37.378Z,23.33
2022-09-26T09:19:48.874Z,23.48
2022-09-26T09:23:18.402Z,23.53
2022-09-26T09:29:30.430Z,24.00
2022-09-26T09:32:21.831Z,24.01
2022-09-26T09:35:18.881Z,23.94
2022-09-26T09:38:19.286Z,24.22
2022-09-26T09:41:25.016Z,24.24
2022-09-26T10:17:32.182Z,23.61
2022-09-26T10:20:35.332Z,24.05
2022-09-26T10:23:06.365Z,24.49
2022-09-26T10:25:33.425Z,24.76
2022-09-26T10:28:01.490Z,24.96
2022-09-26T10:30:46.635Z,25.08
2022-09-26T10:33:29.301Z,25.15
2022-09-26T10:36:21.935Z,25.37
2022-09-26T10:39:17.500Z,25.42
2022-09-26T10:41:47.552Z,25.33
2022-09-26T10:44:26.672Z,25.34
2022-09-26T10:47:08.766Z,25.22
2022-09-26T10:50:20.174Z,25.36
2022-09-26T10:53:17.418Z,25.27
2022-09-26T10:55:51.295Z,25.40
2022-09-26T10:58:27.867Z,25.54
2022-09-26T11:01:00.931Z,25.59
2022-09-26T11:03:42.033Z,25.61
2022-09-26T11:06:47.101Z,25.56
2022-09-26T11:09:27.561Z,25.60
2022-09-26T11:12:40.182Z,25.67
2022-09-26T11:15:14.213Z,25.78
2022-09-26T11:17:49.793Z,25.63
2022-09-26T11:20:17.997Z,25.60
2022-09-26T11:23:13.992Z,25.60
2022-09-26T11:26:03.279Z,25.51
2022-09-26T11:29:03.841Z,25.41
2022-09-26T11:31:48.656Z,25.39
2022-09-26T11:34:35.309Z,25.41
2022-09-26T11:37:42.302Z,25.53
2022-09-26T11:40:49.021Z,25.58
2022-09-26T11:43:18.490Z,25.47
2022-09-26T11:45:53.618Z,25.63
2022-09-26T11:49:05.699Z,25.56
2022-09-26T11:52:29.742Z,25.67
2022-09-26T11:55:04.919Z,25.72
2022-09-26T11:57:53.898Z,25.66
2022-09-26T12:00:27.741Z,25.80
2022-09-26T12:03:20.975Z,25.65
2022-09-26T12:06:01.811Z,25.76
2022-09-26T12:08:57.970Z,25.72
2022-09-26T12:11:51.218Z,25.60
2022-09-26T12:14:18.083Z,25.64
2022-09-26T12:17:03.889Z,25.71
2022-09-26T12:19:40.001Z,25.63
2022-09-26T12:22:36.186Z,25.46
2022-09-26T12:25:24.278Z,25.32
2022-09-26T12:28:03.106Z,25.14
2022-09-26T12:30:39.124Z,24.97
2022-09-26T12:33:50.533Z,25.01
2022-09-26T12:36:23.608Z,24.98
2022-09-26T12:39:11.532Z,24.90
2022-09-26T12:41:56.566Z,24.71
2022-09-26T12:45:11.522Z,24.74
2022-09-26T12:48:09.783Z,24.69
2022-09-26T12:50:54.548Z,24.38
2022-09-26T12:53:48.703Z,24.25
2022-09-26T12:56:26.739Z,24.36
2022-09-26T12:59:21.397Z,24.34
2022-09-26T13:02:26.791Z,24.22
2022-09-26T13:05:11.766Z,24.27
2022-09-26T13:07:59.416Z,24.22
2022-09-26T13:10:44.168Z,24.27
2022-09-26T13:13:22.477Z,24.24
2022-09-26T13:16:13.434Z,24.16
2022-09-26T13:18:47.301Z,24.31
2022-09-26T13:21:28.584Z,24.40
2022-09-26T13:24:00.314Z,24.16
2022-09-26T13:26:45.253Z,24.33
2022-09-26T13:29:37.601Z,24.35
2022-09-26T13:32:36.807Z,24.33
2022-09-26T13:35:21.383Z,24.36
2022-09-26T13:38:16.177Z,24.36
2022-09-26T13:41:23.376Z,24.12
2022-09-26T13:44:03.760Z,24.14
2022-09-26T13:46:52.906Z,24.16
2022-09-26T13:49:30.421Z,24.00
2022-09-26T13:51:57.384Z,23.94
2022-09-26T13:54:34.797Z,23.86
2022-09-26T13:57:44.535Z,23.91
2022-09-26T14:00:34.887Z,23.93
2022-09-26T14:03:10.300Z,23.81
2022-09-26T14:05:46.768Z,23.79
2022-09-26T14:08:44.426Z,23.77
2022-09-26T14:11:32.979Z,23.68
2022-09-26T14:14:18.289Z,23.77
2022-09-26T14:16:45.961Z,23.86
2022-09-26T14:19:19.260Z,23.83
2022-09-26T14:22:05.320Z,23.93
2022-09-26T14:24:42.743Z,23.92
2022-09-26T14:27:09.658Z,23.85
2022-09-26T14:29:36.666Z,23.80
2022-09-26T14:32:27.468Z,23.93
2022-09-26T14:34:54.648Z,23.90
2022-09-26T14:37:24.518Z,23.85
2022-09-26T14:40:00.495Z,23.70
2022-09-26T14:42:31.973Z,23.62
2022-09-26T14:45:05.545Z,23.59
2022-09-26T14:47:43.550Z,23.50
2022-09-26T14:50:18.419Z,23.44
2022-09-26T14:53:10.100Z,23.39
2022-09-26T14:56:01.170Z,23.24
2022-09-26T14:58:32.680Z,22.92
2022-09-26T15:01:05.944Z,22.83
2022-09-26T15:03:34.778Z,22.93
2022-09-26T15:06:05.773Z,22.77
2022-09-26T15:08:40.031Z,22.80
2022-09-26T15:11:08.199Z,22.62
2022-09-26T15:13:43.451Z,22.66
2022-09-26T15:16:32.884Z,22.51
2022-09-26T15:19:35.000Z,22.54
2022-09-26T15:22:13.641Z,22.35
2022-09-26T15:24:41.785Z,22.33
2022-09-26T15:27:29.609Z,22.38
2022-09-26T15:30:05.067Z,22.23
2022-09-26T15:32:34.234Z,22.20
2022-09-26T15:35:03.805Z,22.17
2022-09-26T15:37:36.693Z,22.18
2022-09-26T15:40:24.695Z,22.14
2022-09-26T15:43:09.988Z,22.02
2022-09-26T15:45:46.435Z,21.91
2022-09-26T15:48:19.042Z,21.79
2022-09-26T15:51:11.458Z,21.76
2022-09-26T15:53:46.367Z,21.73
2022-09-26T15:56:54.876Z,21.70
2022-09-26T15:59:40.942Z,21.68
2022-09-26T16:02:24.560Z,21.58
2022-09-26T16:04:54.921Z,21.64
2022-09-26T16:07:26.704Z,21.63
2022-09-26T16:09:56.226Z,21.61
2022-09-26T16:12:29.123Z,21.49
2022-09-26T16:15:05.789Z,21.55
2022-09-26T16:17:49.252Z,21.46
2022-09-26T16:20:16.571Z,21.36
2022-09-26T16:22:51.841Z,21.34
2022-09-26T16:25:23.343Z,21.31
2022-09-26T16:27:58.449Z,21.26
2022-09-26T16:30:28.275Z,21.18
2022-09-26T16:33:12.953Z,21.18
2022-09-26T16:35:47.838Z,21.22
2022-09-26T16:38:26.484Z,21.22
2022-09-26T16:41:01.934Z,21.22
2022-09-26T16:43:34.383Z,21.13
2022-09-26T16:46:10.729Z,21.06
2022-09-26T16:48:41.903Z,20.99
2022-09-26T16:51:13.710Z,21.02
2022-09-26T16:53:43.367Z,20.96
2022-09-26T16:56:14.538Z,20.96
2022-09-26T16:58:49.198Z,20.91
2022-09-26T17:01:38.414Z,20.89
2022-09-26T17:04:13.490Z,20.85
2022-09-26T17:06:40.663Z,20.79
2022-09-26T17:09:34.194Z,20.71
2022-09-26T17:12:05.115Z,20.69
2022-09-26T17:14:40.435Z,20.63
2022-09-26T17:17:16.281Z,20.62
2022-09-26T17:19:46.319Z,20.56
2022-09-26T17:22:19.339Z,20.50
2022-09-26T17:24:48.160Z,20.49
2022-09-26T17:27:17.993Z,20.50
2022-09-26T17:29:48.640Z,20.52
2022-09-26T17:32:30.734Z,20.53
2022-09-26T17:35:00.056Z,20.45
2022-09-26T17:37:28.030Z,20.45
2022-09-26T17:39:56.061Z,20.44
2022-09-26T17:42:23.715Z,20.40
2022-09-26T17:44:51.160Z,20.29
2022-09-26T17:47:19.316Z,20.26
2022-09-26T17:49:56.223Z,20.17
2022-09-26T17:52:32.303Z,20.16
2022-09-26T17:55:04.478Z,20.17
2022-09-26T17:57:34.523Z,20.16
2022-09-26T18:00:11.128Z,20.15
2022-09-26T18:02:45.032Z,20.23
2022-09-26T18:05:22.150Z,20.15
2022-09-26T18:07:55.462Z,20.19
2022-09-26T18:10:30.865Z,20.14
2022-09-26T18:13:01.074Z,20.17
2022-09-26T18:15:29.549Z,20.10
2022-09-26T18:17:57.203Z,20.11
2022-09-26T18:20:38.196Z,20.18
2022-09-26T18:23:07.587Z,20.16
2022-09-26T18:25:37.850Z,20.06
2022-09-26T18:28:08.764Z,20.07
2022-09-26T18:30:44.994Z,20.09
2022-09-26T18:33:14.003Z,20.08
2022-09-26T18:35:42.185Z,20.17
2022-09-26T18:38:12.397Z,20.15
2022-09-26T18:40:55.215Z,20.21
2022-09-26T18:43:25.372Z,20.13
2022-09-26T18:45:53.163Z,20.12
2022-09-26T18:48:30.800Z,20.23
2022-09-26T18:50:59.291Z,20.27
2022-09-26T18:53:37.390Z,20.28
2022-09-26T18:56:27.981Z,20.21
2022-09-26T18:58:57.079Z,20.25
2022-09-26T19:01:38.668Z,20.29
2022-09-26T19:04:10.965Z,20.22
2022-09-26T19:06:42.070Z,20.24
2022-09-26T19:09:18.629Z,20.16
2022-09-26T19:11:46.681Z,20.07
2022-09-26T19:14:16.777Z,20.05
2022-09-26T19:16:45.705Z,20.03
2022-09-26T19:19:13.335Z,20.05
2022-09-26T19:21:43.117Z,20.00
2022-09-26T19:24:37.421Z,19.92
2022-09-26T19:27:21.213Z,19.83
2022-09-26T19:29:54.171Z,19.83
2022-09-26T19:32:33.550Z,19.80
2022-09-26T19:35:03.498Z,19.80
2022-09-26T19:37:30.441Z,19.76
2022-09-26T19:39:57.921Z,19.59
2022-09-26T19:42:26.252Z,19.74
2022-09-26T19:44:53.244Z,19.72
2022-09-26T19:47:23.415Z,19.71
2022-09-26T19:49:52.877Z,19.71
2022-09-26T19:52:22.192Z,19.66
2022-09-26T19:54:49.837Z,19.66
2022-09-26T19:57:19.165Z,19.65
2022-09-26T19:59:47.199Z,19.67
2022-09-26T20:02:32.057Z,19.65
2022-09-26T20:04:59.229Z,19.67
2022-09-26T20:07:26.141Z,19.70
2022-09-26T20:09:53.191Z,19.67
2022-09-26T20:12:20.466Z,19.71
2022-09-26T20:14:47.376Z,19.73
2022-09-26T20:17:26.272Z,19.78
2022-09-26T20:19:58.644Z,19.74
2022-09-26T20:22:26.348Z,19.61
2022-09-26T20:24:57.649Z,19.69
2022-09-26T20:27:29.333Z,19.58
2022-09-26T20:30:15.700Z,19.59
2022-09-26T20:32:42.770Z,19.66
2022-09-26T20:35:15.838Z,19.67
2022-09-26T20:37:44.106Z,19.63
2022-09-26T20:40:18.369Z,19.69
2022-09-26T20:42:48.760Z,19.66
2022-09-26T20:45:19.631Z,19.68
2022-09-26T20:47:46.836Z,19.77
2022-09-26T20:50:17.838Z,19.86
2022-09-26T20:52:45.138Z,19.88
2022-09-26T20:55:18.110Z,19.96
2022-09-26T20:57:45.601Z,19.94
2022-09-26T21:00:17.950Z,19.85
2022-09-26T21:02:47.120Z,19.97
2022-09-26T21:05:24.520Z,20.02
2022-09-26T21:07:52.536Z,19.95
2022-09-26T21:10:28.282Z,19.93
2022-09-26T21:12:55.610Z,19.95
2022-09-26T21:15:24.819Z,19.99
2022-09-26T21:17:53.378Z,19.95
2022-09-26T21:20:26.688Z,19.95
2022-09-26T21:23:01.969Z,19.94
2022-09-26T21:25:31.255Z,19.96
2022-09-26T21:28:01.808Z,19.94
2022-09-26T21:30:29.732Z,19.85
2022-09-26T21:32:59.030Z,19.92
2022-09-26T21:35:30.081Z,19.94
2022-09-26T21:37:59.007Z,19.84
2022-09-26T21:40:30.250Z,19.74
2022-09-26T21:43:03.122Z,19.66
2022-09-26T21:45:30.063Z,19.64
2022-09-26T21:47:57.530Z,19.72
2022-09-26T21:50:28.188Z,19.69
2022-09-26T21:53:06.119Z,19.76
2022-09-26T21:55:36.470Z,19.76
2022-09-26T21:58:09.312Z,19.75
2022-09-26T22:00:36.224Z,19.74
2022-09-26T22:03:03.216Z,19.79
2022-09-26T22:05:31.123Z,19.89
2022-09-26T22:07:58.510Z,19.94
2022-09-26T22:10:27.170Z,19.79
2022-09-26T22:12:54.062Z,19.80
2022-09-26T22:15:21.173Z,19.80
2022-09-26T22:17:48.614Z,19.89
2022-09-26T22:20:15.994Z,19.81
2022-09-26T22:22:43.010Z,19.73
2022-09-26T22:25:10.146Z,19.80
2022-09-26T22:27:37.267Z,19.80
2022-09-26T22:30:06.124Z,19.82
2022-09-26T22:32:33.171Z,19.84
2022-09-26T22:35:00.095Z,19.65
2022-09-26T22:37:27.045Z,19.53
2022-09-26T22:39:53.981Z,19.57
2022-09-26T22:42:20.891Z,19.55
2022-09-26T22:44:47.905Z,19.63
2022-09-26T22:47:14.797Z,19.59
2022-09-26T22:49:41.834Z,19.59
2022-09-26T22:52:08.733Z,19.46
2022-09-26T22:54:35.642Z,19.50
2022-09-26T22:57:02.640Z,19.50
2022-09-26T22:59:29.528Z,19.35
2022-09-26T23:01:57.260Z,19.36
2022-09-26T23:04:24.282Z,19.27
2022-09-26T23:06:51.281Z,19.23
2022-09-26T23:09:18.230Z,19.20
2022-09-26T23:11:46.061Z,19.04
2022-09-26T23:14:12.974Z,18.94
2022-09-26T23:16:40.102Z,18.78
2022-09-26T23:19:07.101Z,18.73
2022-09-26T23:21:34.318Z,18.67
2022-09-26T23:24:01.614Z,18.67
2022-09-26T23:26:31.678Z,18.67
2022-09-26T23:28:59.312Z,18.59
2022-09-26T23:31:28.270Z,18.54
2022-09-26T23:33:56.121Z,18.50
2022-09-26T23:36:23.495Z,18.38
2022-09-26T23:38:50.585Z,18.29
2022-09-26T23:41:17.596Z,18.32
2022-09-26T23:43:46.451Z,18.25
2022-09-26T23:46:13.658Z,18.22
2022-09-26T23:48:40.632Z,18.35
2022-09-26T23:51:07.940Z,18.26
2022-09-26T23:53:35.195Z,18.21
2022-09-26T23:56:13.819Z,18.21
2022-09-26T23:58:41.722Z,17.96
